AirNav   Everest Fuels
 
 530 users online  

SC13 Darden Airport
Gaston, South Carolina, USA

GOING TO GASTON?


FAA INFORMATION EFFECTIVE 03 NOVEMBER 2022

Location

FAA Identifier: SC13
Lat/Long: 33-50-26.5430N 081-11-01.3530W
33-50.442383N 081-11.022550W
33.8407064,-81.1837092
(estimated)
Elevation: 450 ft. / 137 m (estimated)
Variation: 04W (1985)
From city: 5 miles NW of GASTON, SC
Time zone: UTC -5 (UTC -4 during Daylight Saving Time)
Zip code: 29053

Airport Operations

Airport use: Private use. Permission required prior to landing
Activation date: 02/1977
Control tower: no
ARTCC: JACKSONVILLE CENTER
FSS: ANDERSON FLIGHT SERVICE STATION
Attendance: MON-FRI 0800-1630
Wind indicator: yes
Segmented circle: no

Airport Communications

WX ASOS at CAE (7 nm NE): 120.15 (803-822-4168)
WX ASOS at CUB (12 nm NE): 118.675 (803-929-0665)

Nearby radio navigation aids

VOR radial/distance  VOR name  Freq  Var
CAEr263/6.5COLUMBIA VORTAC114.7002W
MMTr263/19.6MC ENTIRE VORTAC113.2008W

 
NDB name  Hdg/Dist  Freq  Var  ID
AIKEN071/27.134706WAIK .- .. -.-
ENOREE148/36.127807WEOE . --- .

Airport Services

Runway Information

Runway 12/30

Dimensions: 3300 x 200 ft. / 1006 x 61 m
Surface: turf
RUNWAY 12  RUNWAY 30
Traffic pattern: leftleft
Obstructions: none35 ft. trees

Airport Ownership and Management from official FAA records

Ownership: Privately-owned
Owner: BARBARA DARDEN
141 ASHLEY HILLS DR.
LEXINGTON, SC 29072-7932
Phone 803-270-5912
Manager: DOROTHEA DARDEN
262 EASTGATE DR. MB-399
AIKEN, SC 29803
Phone 803-270-5912

Additional Remarks

FOR CD CTC COLUMBIA APCH AT 803-822-5242 OR 803-822-5040.

Instrument Procedures

There are no published instrument procedures at SC13.

Some nearby airports with instrument procedures:

6J0 - Lexington County Airport (4 nm SW)
KCAE - Columbia Metro Airport (7 nm NE)
KCUB - Jim Hamilton L B Owens Airport (12 nm NE)
KXNO - North Air Force Auxiliary Field (15 nm S)
KMMT - Mc Entire Joint National Guard Base (20 nm E)
 
Loc | Ops | Rwys | IFR | FBO | Links
Com | Nav | Svcs | Stats | Notes
Area around SC13 (Darden Airport)
 
Road maps at: MapQuest Bing Google
 
Aerial photo
No photo
 
Sectional chart

 
Airport distance calculator
Flying to Darden Airport? Find the distance to fly.

From to SC13

Sunrise and sunset
Times for 27-Nov-2022
 Local
(UTC-5)
 Zulu
(UTC)
Morning civil twilight06:4211:42
Sunrise07:0912:09
Sunset17:1622:16
Evening civil twilight17:4322:43

Current date and time
Zulu (UTC)  27-Nov-2022 11:15:47
Local (UTC-5)  27-Nov-2022 06:15:47
 
METAR
KCAE 
6nm NE 
271056Z 11004KT 1SM -RA BR VV002 12/12 A2987 RMK AO2 RAB0959E37B50 SLP114 P0002 T01220122 RVRNO
KCUB 
12nm NE 
271053Z AUTO 00000KT 1 1/2SM HZ OVC002 16/13 A2988 RMK AO2 RAB0955E46 SLP118 P0002 T01610128
KXNO 
15nm S 
271100Z AUTO 13004KT 3/4SM BR VV001 14/14 A2988 RMK AO2 SLP121 RVRNO $
TAF
KCAE 
6nm NE 
271021Z 2710/2806 11010KT 5SM -SHRA BR BKN003 OVC015 WS020/21040KT TEMPO 2712/2716 1SM SHRA BR SCT004 FM271600 20012G22KT P6SM VCSH SCT007 BKN015 FM271800 24016G24KT P6SM SCT015 BKN035 FM272000 25016G23KT P6SM SCT250
KCUB 
12nm NE 
271021Z 2710/2806 11010KT 5SM -SHRA BR BKN003 OVC015 WS020/21040KT TEMPO 2712/2716 1SM SHRA BR SCT004 FM271600 20012G22KT P6SM VCSH SCT007 BKN015 FM271800 24016G24KT P6SM SCT015 BKN035 FM272000 25017G25KT P6SM SCT250
NOTAMs
Click for the latest NOTAMs
NOTAMs are issued by the DoD/FAA and will open in a separate window not controlled by AirNav.

 

 
 

Would you like to see your business listed on this page?

 If your business provides an interesting product or service to pilots, flight crews, aircraft, or users of the Darden Airport, you should consider listing it here.  To start the listing process, click on the button below
 
Add a business
 

Other Pages about Darden Airport

Update a link
 
Copyright © AirNav, LLC. All rights reserved. Privacy Policy  Contact